sensor_id;sensor_type;location;lat;lon;timestamp;P1;durP1;ratioP1;P2;durP2;ratioP2
18999;SDS011;9633;50.980;13.850;2022-10-16T00:00:51;28.33;;;22.17;;
18999;SDS011;9633;50.980;13.850;2022-10-16T00:02:24;28.73;;;22.17;;
18999;SDS011;9633;50.980;13.850;2022-10-16T00:03:59;28.50;;;22.57;;
18999;SDS011;9633;50.980;13.850;2022-10-16T00:05:37;29.33;;;22.90;;
18999;SDS011;9633;50.980;13.850;2022-10-16T00:07:11;28.23;;;22.50;;
18999;SDS011;9633;50.980;13.850;2022-10-16T00:08:45;28.93;;;23.40;;
18999;SDS011;9633;50.980;13.850;2022-10-16T00:10:18;26.30;;;20.60;;
18999;SDS011;9633;50.980;13.850;2022-10-16T00:11:51;31.80;;;23.00;;
18999;SDS011;9633;50.980;13.850;2022-10-16T00:13:29;26.87;;;21.13;;
18999;SDS011;9633;50.980;13.850;2022-10-16T00:15:02;26.07;;;21.93;;
18999;SDS011;9633;50.980;13.850;2022-10-16T00:16:35;25.27;;;21.27;;
18999;SDS011;9633;50.980;13.850;2022-10-16T00:18:09;23.80;;;19.50;;
18999;SDS011;9633;50.980;13.850;2022-10-16T00:19:43;23.67;;;20.10;;
18999;SDS011;9633;50.980;13.850;2022-10-16T00:21:16;27.50;;;21.80;;
18999;SDS011;9633;50.980;13.850;2022-10-16T00:22:50;27.20;;;21.23;;
18999;SDS011;9633;50.980;13.850;2022-10-16T00:24:23;28.80;;;22.10;;
18999;SDS011;9633;50.980;13.850;2022-10-16T00:25:56;32.27;;;24.17;;
18999;SDS011;9633;50.980;13.850;2022-10-16T00:27:29;31.97;;;23.03;;
18999;SDS011;9633;50.980;13.850;2022-10-16T00:29:02;27.73;;;21.77;;
18999;SDS011;9633;50.980;13.850;2022-10-16T00:30:37;27.50;;;20.80;;
18999;SDS011;9633;50.980;13.850;2022-10-16T00:32:09;22.87;;;19.10;;
18999;SDS011;9633;50.980;13.850;2022-10-16T00:33:42;24.23;;;18.97;;
18999;SDS011;9633;50.980;13.850;2022-10-16T00:35:17;23.97;;;19.30;;
18999;SDS011;9633;50.980;13.850;2022-10-16T00:36:50;26.33;;;21.17;;
18999;SDS011;9633;50.980;13.850;2022-10-16T00:38:23;27.37;;;19.87;;
18999;SDS011;9633;50.980;13.850;2022-10-16T00:39:55;25.03;;;21.00;;
18999;SDS011;9633;50.980;13.850;2022-10-16T00:41:28;24.67;;;19.27;;
18999;SDS011;9633;50.980;13.850;2022-10-16T00:43:07;26.97;;;19.70;;
18999;SDS011;9633;50.980;13.850;2022-10-16T00:44:48;23.70;;;19.20;;
18999;SDS011;9633;50.980;13.850;2022-10-16T00:46:24;25.67;;;19.70;;
18999;SDS011;9633;50.980;13.850;2022-10-16T00:47:59;22.93;;;19.33;;
18999;SDS011;9633;50.980;13.850;2022-10-16T00:49:33;30.27;;;22.60;;
18999;SDS011;9633;50.980;13.850;2022-10-16T00:51:07;30.73;;;22.80;;
18999;SDS011;9633;50.980;13.850;2022-10-16T00:52:41;25.27;;;19.40;;
18999;SDS011;9633;50.980;13.850;2022-10-16T00:54:19;27.90;;;20.27;;
18999;SDS011;9633;50.980;13.850;2022-10-16T00:55:54;25.27;;;20.03;;
18999;SDS011;9633;50.980;13.850;2022-10-16T00:57:27;26.60;;;20.53;;
18999;SDS011;9633;50.980;13.850;2022-10-16T00:59:01;27.33;;;20.80;;
18999;SDS011;9633;50.980;13.850;2022-10-16T01:00:37;25.23;;;20.20;;
18999;SDS011;9633;50.980;13.850;2022-10-16T01:02:11;26.53;;;20.43;;
18999;SDS011;9633;50.980;13.850;2022-10-16T01:03:45;23.07;;;18.83;;
18999;SDS011;9633;50.980;13.850;2022-10-16T01:05:20;20.83;;;18.53;;
18999;SDS011;9633;50.980;13.850;2022-10-16T01:06:57;23.97;;;19.70;;
18999;SDS011;9633;50.980;13.850;2022-10-16T01:08:39;25.27;;;20.10;;
18999;SDS011;9633;50.980;13.850;2022-10-16T01:10:21;26.03;;;20.03;;
18999;SDS011;9633;50.980;13.850;2022-10-16T01:12:05;23.03;;;19.47;;
18999;SDS011;9633;50.980;13.850;2022-10-16T01:13:42;25.83;;;21.00;;
18999;SDS011;9633;50.980;13.850;2022-10-16T01:15:21;24.10;;;20.23;;
18999;SDS011;9633;50.980;13.850;2022-10-16T01:17:00;28.73;;;21.40;;
18999;SDS011;9633;50.980;13.850;2022-10-16T01:18:39;28.10;;;22.00;;
18999;SDS011;9633;50.980;13.850;2022-10-16T01:20:18;31.40;;;24.23;;
18999;SDS011;9633;50.980;13.850;2022-10-16T01:21:59;27.33;;;22.10;;
18999;SDS011;9633;50.980;13.850;2022-10-16T01:23:36;27.37;;;21.20;;
18999;SDS011;9633;50.980;13.850;2022-10-16T01:25:24;26.83;;;21.67;;
18999;SDS011;9633;50.980;13.850;2022-10-16T01:27:11;29.40;;;22.23;;
18999;SDS011;9633;50.980;13.850;2022-10-16T01:28:47;32.37;;;23.33;;
18999;SDS011;9633;50.980;13.850;2022-10-16T01:30:26;26.10;;;21.13;;
18999;SDS011;9633;50.980;13.850;2022-10-16T01:32:04;27.53;;;22.17;;
18999;SDS011;9633;50.980;13.850;2022-10-16T01:33:43;28.20;;;22.37;;
18999;SDS011;9633;50.980;13.850;2022-10-16T01:35:21;26.93;;;21.37;;
18999;SDS011;9633;50.980;13.850;2022-10-16T01:37:02;24.53;;;20.53;;
18999;SDS011;9633;50.980;13.850;2022-10-16T01:38:37;28.60;;;22.67;;
18999;SDS011;9633;50.980;13.850;2022-10-16T01:40:12;28.43;;;22.40;;
18999;SDS011;9633;50.980;13.850;2022-10-16T01:41:48;27.07;;;21.73;;
18999;SDS011;9633;50.980;13.850;2022-10-16T01:43:28;31.83;;;24.40;;
18999;SDS011;9633;50.980;13.850;2022-10-16T01:45:06;31.77;;;23.93;;
18999;SDS011;9633;50.980;13.850;2022-10-16T01:46:42;30.50;;;23.73;;
18999;SDS011;9633;50.980;13.850;2022-10-16T01:48:18;29.90;;;23.83;;
18999;SDS011;9633;50.980;13.850;2022-10-16T01:49:54;34.43;;;25.67;;
18999;SDS011;9633;50.980;13.850;2022-10-16T01:51:30;34.77;;;27.17;;
18999;SDS011;9633;50.980;13.850;2022-10-16T01:53:04;35.30;;;26.43;;
18999;SDS011;9633;50.980;13.850;2022-10-16T01:54:37;36.23;;;26.97;;
18999;SDS011;9633;50.980;13.850;2022-10-16T01:56:13;34.83;;;27.20;;
18999;SDS011;9633;50.980;13.850;2022-10-16T01:57:49;32.50;;;26.47;;
18999;SDS011;9633;50.980;13.850;2022-10-16T01:59:26;32.87;;;25.93;;
18999;SDS011;9633;50.980;13.850;2022-10-16T02:01:04;34.23;;;27.57;;
18999;SDS011;9633;50.980;13.850;2022-10-16T02:02:40;34.07;;;27.33;;
18999;SDS011;9633;50.980;13.850;2022-10-16T02:04:16;33.47;;;26.73;;
18999;SDS011;9633;50.980;13.850;2022-10-16T02:05:53;33.83;;;26.73;;
18999;SDS011;9633;50.980;13.850;2022-10-16T02:07:28;31.40;;;26.10;;
18999;SDS011;9633;50.980;13.850;2022-10-16T02:09:02;31.13;;;25.87;;
18999;SDS011;9633;50.980;13.850;2022-10-16T02:10:35;30.53;;;25.23;;
18999;SDS011;9633;50.980;13.850;2022-10-16T02:12:10;32.77;;;24.90;;
18999;SDS011;9633;50.980;13.850;2022-10-16T02:13:48;28.30;;;24.67;;
18999;SDS011;9633;50.980;13.850;2022-10-16T02:15:26;28.67;;;24.97;;
18999;SDS011;9633;50.980;13.850;2022-10-16T02:16:59;28.53;;;24.00;;
18999;SDS011;9633;50.980;13.850;2022-10-16T02:18:32;25.73;;;22.93;;
18999;SDS011;9633;50.980;13.850;2022-10-16T02:20:06;26.47;;;23.63;;
18999;SDS011;9633;50.980;13.850;2022-10-16T02:21:40;28.90;;;23.90;;
18999;SDS011;9633;50.980;13.850;2022-10-16T02:23:18;26.40;;;23.53;;
18999;SDS011;9633;50.980;13.850;2022-10-16T02:24:58;26.73;;;23.27;;
18999;SDS011;9633;50.980;13.850;2022-10-16T02:26:35;26.17;;;22.80;;
18999;SDS011;9633;50.980;13.850;2022-10-16T02:28:14;26.37;;;23.40;;
18999;SDS011;9633;50.980;13.850;2022-10-16T02:29:52;25.00;;;22.20;;
18999;SDS011;9633;50.980;13.850;2022-10-16T02:31:34;26.23;;;21.80;;
18999;SDS011;9633;50.980;13.850;2022-10-16T02:33:11;22.70;;;20.27;;
18999;SDS011;9633;50.980;13.850;2022-10-16T02:34:46;24.77;;;22.03;;
18999;SDS011;9633;50.980;13.850;2022-10-16T02:36:20;27.87;;;21.63;;
18999;SDS011;9633;50.980;13.850;2022-10-16T02:37:54;28.33;;;23.37;;
18999;SDS011;9633;50.980;13.850;2022-10-16T02:39:28;25.70;;;21.93;;
18999;SDS011;9633;50.980;13.850;2022-10-16T02:41:03;25.17;;;21.70;;
18999;SDS011;9633;50.980;13.850;2022-10-16T02:42:37;27.10;;;23.17;;
18999;SDS011;9633;50.980;13.850;2022-10-16T02:44:11;27.77;;;24.40;;
18999;SDS011;9633;50.980;13.850;2022-10-16T02:45:43;26.47;;;23.13;;
18999;SDS011;9633;50.980;13.850;2022-10-16T02:47:18;26.63;;;23.00;;
18999;SDS011;9633;50.980;13.850;2022-10-16T02:48:50;27.17;;;23.97;;
18999;SDS011;9633;50.980;13.850;2022-10-16T02:50:23;26.77;;;23.30;;
18999;SDS011;9633;50.980;13.850;2022-10-16T02:51:56;27.53;;;24.37;;
18999;SDS011;9633;50.980;13.850;2022-10-16T02:53:29;27.80;;;22.87;;
18999;SDS011;9633;50.980;13.850;2022-10-16T02:55:03;27.53;;;23.60;;
18999;SDS011;9633;50.980;13.850;2022-10-16T02:56:36;26.87;;;23.97;;
18999;SDS011;9633;50.980;13.850;2022-10-16T02:58:09;26.60;;;23.80;;
18999;SDS011;9633;50.980;13.850;2022-10-16T02:59:43;25.20;;;22.50;;
18999;SDS011;9633;50.980;13.850;2022-10-16T03:01:17;25.70;;;23.00;;
18999;SDS011;9633;50.980;13.850;2022-10-16T03:02:51;27.90;;;23.77;;
18999;SDS011;9633;50.980;13.850;2022-10-16T03:04:23;26.40;;;23.07;;
18999;SDS011;9633;50.980;13.850;2022-10-16T03:05:56;26.83;;;23.47;;
18999;SDS011;9633;50.980;13.850;2022-10-16T03:07:28;26.13;;;23.13;;
18999;SDS011;9633;50.980;13.850;2022-10-16T03:09:01;27.23;;;23.23;;
18999;SDS011;9633;50.980;13.850;2022-10-16T03:10:34;24.83;;;22.03;;
18999;SDS011;9633;50.980;13.850;2022-10-16T03:12:07;24.03;;;21.43;;
18999;SDS011;9633;50.980;13.850;2022-10-16T03:13:40;27.17;;;22.00;;
18999;SDS011;9633;50.980;13.850;2022-10-16T03:15:12;23.60;;;20.90;;
18999;SDS011;9633;50.980;13.850;2022-10-16T03:16:45;24.10;;;21.50;;
18999;SDS011;9633;50.980;13.850;2022-10-16T03:18:18;24.30;;;21.67;;
18999;SDS011;9633;50.980;13.850;2022-10-16T03:19:51;25.03;;;22.40;;
18999;SDS011;9633;50.980;13.850;2022-10-16T03:21:24;24.13;;;21.53;;
18999;SDS011;9633;50.980;13.850;2022-10-16T03:22:57;26.53;;;22.93;;
18999;SDS011;9633;50.980;13.850;2022-10-16T03:24:30;25.57;;;22.43;;
18999;SDS011;9633;50.980;13.850;2022-10-16T03:26:04;27.03;;;24.13;;
18999;SDS011;9633;50.980;13.850;2022-10-16T03:27:37;25.07;;;22.37;;
18999;SDS011;9633;50.980;13.850;2022-10-16T03:29:10;27.10;;;24.20;;
18999;SDS011;9633;50.980;13.850;2022-10-16T03:30:43;29.73;;;23.63;;
18999;SDS011;9633;50.980;13.850;2022-10-16T03:32:16;23.60;;;21.00;;
18999;SDS011;9633;50.980;13.850;2022-10-16T03:33:51;25.47;;;22.57;;
18999;SDS011;9633;50.980;13.850;2022-10-16T03:35:24;24.47;;;21.47;;
18999;SDS011;9633;50.980;13.850;2022-10-16T03:36:57;25.77;;;22.93;;
18999;SDS011;9633;50.980;13.850;2022-10-16T03:38:30;27.53;;;22.43;;
18999;SDS011;9633;50.980;13.850;2022-10-16T03:40:03;28.10;;;23.40;;
18999;SDS011;9633;50.980;13.850;2022-10-16T03:41:36;26.40;;;23.50;;
18999;SDS011;9633;50.980;13.850;2022-10-16T03:43:08;28.03;;;22.33;;
18999;SDS011;9633;50.980;13.850;2022-10-16T03:44:42;28.40;;;22.70;;
18999;SDS011;9633;50.980;13.850;2022-10-16T03:46:15;28.20;;;24.13;;
18999;SDS011;9633;50.980;13.850;2022-10-16T03:47:48;26.00;;;23.20;;
18999;SDS011;9633;50.980;13.850;2022-10-16T03:49:21;25.80;;;23.00;;
18999;SDS011;9633;50.980;13.850;2022-10-16T03:50:54;27.93;;;23.50;;
18999;SDS011;9633;50.980;13.850;2022-10-16T03:52:26;27.43;;;24.03;;
18999;SDS011;9633;50.980;13.850;2022-10-16T03:53:59;29.67;;;24.67;;
18999;SDS011;9633;50.980;13.850;2022-10-16T03:55:32;27.40;;;24.50;;
18999;SDS011;9633;50.980;13.850;2022-10-16T03:57:06;28.63;;;23.70;;
18999;SDS011;9633;50.980;13.850;2022-10-16T03:58:39;30.20;;;24.53;;
18999;SDS011;9633;50.980;13.850;2022-10-16T04:00:12;27.40;;;24.43;;
18999;SDS011;9633;50.980;13.850;2022-10-16T04:01:45;28.17;;;25.17;;
18999;SDS011;9633;50.980;13.850;2022-10-16T04:03:18;29.67;;;24.23;;
18999;SDS011;9633;50.980;13.850;2022-10-16T04:04:53;26.40;;;23.50;;
18999;SDS011;9633;50.980;13.850;2022-10-16T04:06:25;28.73;;;24.00;;
18999;SDS011;9633;50.980;13.850;2022-10-16T04:07:59;28.63;;;24.63;;
18999;SDS011;9633;50.980;13.850;2022-10-16T04:09:31;24.50;;;21.87;;
18999;SDS011;9633;50.980;13.850;2022-10-16T04:11:04;28.50;;;23.97;;
18999;SDS011;9633;50.980;13.850;2022-10-16T04:12:37;23.33;;;20.83;;
18999;SDS011;9633;50.980;13.850;2022-10-16T04:14:10;24.47;;;21.60;;
18999;SDS011;9633;50.980;13.850;2022-10-16T04:15:44;23.90;;;21.40;;
18999;SDS011;9633;50.980;13.850;2022-10-16T04:17:17;24.17;;;21.63;;
18999;SDS011;9633;50.980;13.850;2022-10-16T04:18:50;24.83;;;22.00;;
18999;SDS011;9633;50.980;13.850;2022-10-16T04:20:25;25.07;;;22.40;;
18999;SDS011;9633;50.980;13.850;2022-10-16T04:21:58;24.93;;;21.67;;
18999;SDS011;9633;50.980;13.850;2022-10-16T04:23:31;25.40;;;22.03;;
18999;SDS011;9633;50.980;13.850;2022-10-16T04:25:04;24.37;;;21.43;;
18999;SDS011;9633;50.980;13.850;2022-10-16T04:26:38;25.10;;;22.40;;
18999;SDS011;9633;50.980;13.850;2022-10-16T04:28:11;29.50;;;25.53;;
18999;SDS011;9633;50.980;13.850;2022-10-16T04:29:44;27.67;;;24.67;;
18999;SDS011;9633;50.980;13.850;2022-10-16T04:31:17;27.73;;;24.57;;
18999;SDS011;9633;50.980;13.850;2022-10-16T04:32:50;29.23;;;24.33;;
18999;SDS011;9633;50.980;13.850;2022-10-16T04:34:23;29.27;;;24.97;;
18999;SDS011;9633;50.980;13.850;2022-10-16T04:35:58;27.90;;;24.37;;
18999;SDS011;9633;50.980;13.850;2022-10-16T04:37:32;28.63;;;25.30;;
18999;SDS011;9633;50.980;13.850;2022-10-16T04:39:05;28.70;;;24.70;;
18999;SDS011;9633;50.980;13.850;2022-10-16T04:40:38;28.20;;;24.80;;
18999;SDS011;9633;50.980;13.850;2022-10-16T04:42:11;28.37;;;24.53;;
18999;SDS011;9633;50.980;13.850;2022-10-16T04:43:43;28.87;;;24.57;;
18999;SDS011;9633;50.980;13.850;2022-10-16T04:45:16;27.87;;;24.13;;
18999;SDS011;9633;50.980;13.850;2022-10-16T04:46:50;28.60;;;24.77;;
18999;SDS011;9633;50.980;13.850;2022-10-16T04:48:23;28.03;;;24.47;;
18999;SDS011;9633;50.980;13.850;2022-10-16T04:49:56;29.23;;;24.60;;
18999;SDS011;9633;50.980;13.850;2022-10-16T04:51:31;28.57;;;24.53;;
18999;SDS011;9633;50.980;13.850;2022-10-16T04:53:05;27.43;;;24.53;;
18999;SDS011;9633;50.980;13.850;2022-10-16T04:54:38;27.83;;;24.33;;
18999;SDS011;9633;50.980;13.850;2022-10-16T04:56:11;29.00;;;23.87;;
18999;SDS011;9633;50.980;13.850;2022-10-16T04:57:44;26.80;;;23.63;;
18999;SDS011;9633;50.980;13.850;2022-10-16T04:59:17;25.77;;;22.97;;
18999;SDS011;9633;50.980;13.850;2022-10-16T05:00:51;28.23;;;23.43;;
18999;SDS011;9633;50.980;13.850;2022-10-16T05:02:24;27.27;;;24.33;;
18999;SDS011;9633;50.980;13.850;2022-10-16T05:03:57;27.07;;;22.43;;
18999;SDS011;9633;50.980;13.850;2022-10-16T05:05:30;23.83;;;21.23;;
18999;SDS011;9633;50.980;13.850;2022-10-16T05:07:04;25.53;;;21.40;;
18999;SDS011;9633;50.980;13.850;2022-10-16T05:08:37;23.23;;;20.83;;
18999;SDS011;9633;50.980;13.850;2022-10-16T05:10:10;25.37;;;22.60;;
18999;SDS011;9633;50.980;13.850;2022-10-16T05:11:43;26.97;;;22.93;;
18999;SDS011;9633;50.980;13.850;2022-10-16T05:13:16;26.63;;;23.73;;
18999;SDS011;9633;50.980;13.850;2022-10-16T05:14:49;27.00;;;23.80;;
18999;SDS011;9633;50.980;13.850;2022-10-16T05:16:22;27.67;;;23.43;;
18999;SDS011;9633;50.980;13.850;2022-10-16T05:17:55;28.27;;;24.07;;
18999;SDS011;9633;50.980;13.850;2022-10-16T05:19:28;28.83;;;24.37;;
18999;SDS011;9633;50.980;13.850;2022-10-16T05:21:01;26.47;;;23.57;;
18999;SDS011;9633;50.980;13.850;2022-10-16T05:22:36;26.30;;;23.43;;
18999;SDS011;9633;50.980;13.850;2022-10-16T05:24:09;26.73;;;22.83;;
18999;SDS011;9633;50.980;13.850;2022-10-16T05:25:42;26.00;;;23.13;;
18999;SDS011;9633;50.980;13.850;2022-10-16T05:27:15;25.43;;;22.63;;
18999;SDS011;9633;50.980;13.850;2022-10-16T05:28:50;24.97;;;22.30;;
18999;SDS011;9633;50.980;13.850;2022-10-16T05:30:23;23.63;;;21.13;;
18999;SDS011;9633;50.980;13.850;2022-10-16T05:31:57;24.60;;;21.20;;
18999;SDS011;9633;50.980;13.850;2022-10-16T05:33:30;24.50;;;21.90;;
18999;SDS011;9633;50.980;13.850;2022-10-16T05:35:03;26.57;;;21.60;;
18999;SDS011;9633;50.980;13.850;2022-10-16T05:36:42;22.87;;;20.37;;
18999;SDS011;9633;50.980;13.850;2022-10-16T05:38:18;22.83;;;20.50;;
18999;SDS011;9633;50.980;13.850;2022-10-16T05:39:51;22.57;;;20.30;;
18999;SDS011;9633;50.980;13.850;2022-10-16T05:41:24;23.30;;;20.37;;
18999;SDS011;9633;50.980;13.850;2022-10-16T05:42:57;23.13;;;20.67;;
18999;SDS011;9633;50.980;13.850;2022-10-16T05:44:30;22.17;;;19.77;;
18999;SDS011;9633;50.980;13.850;2022-10-16T05:46:08;21.80;;;19.47;;
18999;SDS011;9633;50.980;13.850;2022-10-16T05:47:41;22.77;;;20.37;;
18999;SDS011;9633;50.980;13.850;2022-10-16T05:49:15;21.87;;;19.53;;
18999;SDS011;9633;50.980;13.850;2022-10-16T05:50:47;21.20;;;19.00;;
18999;SDS011;9633;50.980;13.850;2022-10-16T05:52:20;21.47;;;19.17;;
18999;SDS011;9633;50.980;13.850;2022-10-16T05:53:55;22.17;;;19.87;;
18999;SDS011;9633;50.980;13.850;2022-10-16T05:55:28;23.57;;;21.13;;
18999;SDS011;9633;50.980;13.850;2022-10-16T05:57:00;26.30;;;22.23;;
18999;SDS011;9633;50.980;13.850;2022-10-16T05:58:33;23.60;;;20.57;;
18999;SDS011;9633;50.980;13.850;2022-10-16T06:00:08;23.30;;;20.83;;
18999;SDS011;9633;50.980;13.850;2022-10-16T06:01:45;23.77;;;20.90;;
18999;SDS011;9633;50.980;13.850;2022-10-16T06:03:18;23.67;;;21.17;;
18999;SDS011;9633;50.980;13.850;2022-10-16T06:04:51;24.33;;;21.73;;
18999;SDS011;9633;50.980;13.850;2022-10-16T06:06:25;22.90;;;20.30;;
18999;SDS011;9633;50.980;13.850;2022-10-16T06:08:00;21.57;;;19.33;;
18999;SDS011;9633;50.980;13.850;2022-10-16T06:09:34;20.63;;;18.57;;
18999;SDS011;9633;50.980;13.850;2022-10-16T06:11:08;21.57;;;19.27;;
18999;SDS011;9633;50.980;13.850;2022-10-16T06:12:43;22.30;;;20.00;;
18999;SDS011;9633;50.980;13.850;2022-10-16T06:14:16;21.50;;;19.30;;
18999;SDS011;9633;50.980;13.850;2022-10-16T06:15:49;21.63;;;19.43;;
18999;SDS011;9633;50.980;13.850;2022-10-16T06:17:21;21.40;;;19.20;;
18999;SDS011;9633;50.980;13.850;2022-10-16T06:18:55;23.80;;;21.30;;
18999;SDS011;9633;50.980;13.850;2022-10-16T06:20:28;23.93;;;21.03;;
18999;SDS011;9633;50.980;13.850;2022-10-16T06:22:01;23.67;;;21.17;;
18999;SDS011;9633;50.980;13.850;2022-10-16T06:23:35;23.37;;;20.87;;
18999;SDS011;9633;50.980;13.850;2022-10-16T06:25:10;22.13;;;19.93;;
18999;SDS011;9633;50.980;13.850;2022-10-16T06:26:43;22.03;;;19.80;;
18999;SDS011;9633;50.980;13.850;2022-10-16T06:28:16;21.33;;;19.00;;
18999;SDS011;9633;50.980;13.850;2022-10-16T06:29:49;22.27;;;19.97;;
18999;SDS011;9633;50.980;13.850;2022-10-16T06:31:22;20.73;;;18.60;;
18999;SDS011;9633;50.980;13.850;2022-10-16T06:32:58;20.80;;;18.70;;
18999;SDS011;9633;50.980;13.850;2022-10-16T06:34:31;21.00;;;18.90;;
18999;SDS011;9633;50.980;13.850;2022-10-16T06:36:06;20.30;;;18.30;;
18999;SDS011;9633;50.980;13.850;2022-10-16T06:37:41;19.70;;;17.80;;
18999;SDS011;9633;50.980;13.850;2022-10-16T06:39:14;18.43;;;16.63;;
18999;SDS011;9633;50.980;13.850;2022-10-16T06:40:48;18.03;;;16.23;;
18999;SDS011;9633;50.980;13.850;2022-10-16T06:42:21;19.00;;;17.20;;
18999;SDS011;9633;50.980;13.850;2022-10-16T06:43:55;18.43;;;16.53;;
18999;SDS011;9633;50.980;13.850;2022-10-16T06:45:28;21.63;;;19.53;;
18999;SDS011;9633;50.980;13.850;2022-10-16T06:47:02;20.90;;;18.80;;
18999;SDS011;9633;50.980;13.850;2022-10-16T06:48:35;19.93;;;17.90;;
18999;SDS011;9633;50.980;13.850;2022-10-16T06:50:10;18.40;;;16.70;;
18999;SDS011;9633;50.980;13.850;2022-10-16T06:51:43;19.03;;;17.20;;
18999;SDS011;9633;50.980;13.850;2022-10-16T06:53:16;19.03;;;17.13;;
18999;SDS011;9633;50.980;13.850;2022-10-16T06:54:49;17.27;;;15.60;;
18999;SDS011;9633;50.980;13.850;2022-10-16T06:56:24;17.63;;;16.03;;
18999;SDS011;9633;50.980;13.850;2022-10-16T06:57:59;17.97;;;16.30;;
18999;SDS011;9633;50.980;13.850;2022-10-16T06:59:32;17.87;;;16.27;;
18999;SDS011;9633;50.980;13.850;2022-10-16T07:01:05;18.43;;;16.73;;
18999;SDS011;9633;50.980;13.850;2022-10-16T07:02:39;19.07;;;17.23;;
18999;SDS011;9633;50.980;13.850;2022-10-16T07:04:12;19.20;;;17.27;;
18999;SDS011;9633;50.980;13.850;2022-10-16T07:05:45;17.60;;;15.87;;
18999;SDS011;9633;50.980;13.850;2022-10-16T07:07:17;19.23;;;17.43;;
18999;SDS011;9633;50.980;13.850;2022-10-16T07:08:50;18.50;;;16.70;;
18999;SDS011;9633;50.980;13.850;2022-10-16T07:10:23;19.33;;;17.63;;
18999;SDS011;9633;50.980;13.850;2022-10-16T07:11:57;19.23;;;17.33;;
18999;SDS011;9633;50.980;13.850;2022-10-16T07:13:32;19.63;;;17.73;;
18999;SDS011;9633;50.980;13.850;2022-10-16T07:15:06;20.30;;;18.30;;
18999;SDS011;9633;50.980;13.850;2022-10-16T07:16:40;19.70;;;17.70;;
18999;SDS011;9633;50.980;13.850;2022-10-16T07:18:13;19.97;;;18.07;;
18999;SDS011;9633;50.980;13.850;2022-10-16T07:19:46;20.50;;;18.50;;
18999;SDS011;9633;50.980;13.850;2022-10-16T07:21:19;21.30;;;19.17;;
18999;SDS011;9633;50.980;13.850;2022-10-16T07:22:54;19.27;;;17.47;;
18999;SDS011;9633;50.980;13.850;2022-10-16T07:24:27;20.10;;;18.20;;
18999;SDS011;9633;50.980;13.850;2022-10-16T07:26:00;21.17;;;19.27;;
18999;SDS011;9633;50.980;13.850;2022-10-16T07:27:35;21.17;;;19.17;;
18999;SDS011;9633;50.980;13.850;2022-10-16T07:29:13;31.03;;;28.20;;
18999;SDS011;9633;50.980;13.850;2022-10-16T07:30:47;27.50;;;24.90;;
18999;SDS011;9633;50.980;13.850;2022-10-16T07:32:20;20.30;;;18.27;;
18999;SDS011;9633;50.980;13.850;2022-10-16T07:33:53;20.20;;;18.40;;
18999;SDS011;9633;50.980;13.850;2022-10-16T07:35:27;19.13;;;17.37;;
18999;SDS011;9633;50.980;13.850;2022-10-16T07:37:00;19.43;;;17.73;;
18999;SDS011;9633;50.980;13.850;2022-10-16T07:38:33;19.47;;;17.57;;
18999;SDS011;9633;50.980;13.850;2022-10-16T07:40:07;19.97;;;18.07;;
18999;SDS011;9633;50.980;13.850;2022-10-16T07:41:41;19.80;;;18.07;;
18999;SDS011;9633;50.980;13.850;2022-10-16T07:43:15;19.83;;;18.03;;
18999;SDS011;9633;50.980;13.850;2022-10-16T07:44:48;19.27;;;17.67;;
18999;SDS011;9633;50.980;13.850;2022-10-16T07:46:22;20.17;;;18.37;;
18999;SDS011;9633;50.980;13.850;2022-10-16T07:47:55;19.40;;;17.67;;
18999;SDS011;9633;50.980;13.850;2022-10-16T07:49:28;18.40;;;16.80;;
18999;SDS011;9633;50.980;13.850;2022-10-16T07:51:02;18.33;;;16.73;;
18999;SDS011;9633;50.980;13.850;2022-10-16T07:52:35;19.27;;;17.43;;
18999;SDS011;9633;50.980;13.850;2022-10-16T07:54:09;17.80;;;16.00;;
18999;SDS011;9633;50.980;13.850;2022-10-16T07:55:42;16.37;;;14.97;;
18999;SDS011;9633;50.980;13.850;2022-10-16T07:57:15;17.10;;;15.60;;
18999;SDS011;9633;50.980;13.850;2022-10-16T07:58:52;17.53;;;15.90;;
18999;SDS011;9633;50.980;13.850;2022-10-16T08:00:25;18.13;;;16.43;;
18999;SDS011;9633;50.980;13.850;2022-10-16T08:01:58;18.13;;;16.63;;
18999;SDS011;9633;50.980;13.850;2022-10-16T08:03:31;18.20;;;16.67;;
18999;SDS011;9633;50.980;13.850;2022-10-16T08:05:04;18.97;;;17.20;;
18999;SDS011;9633;50.980;13.850;2022-10-16T08:06:38;17.23;;;15.63;;
18999;SDS011;9633;50.980;13.850;2022-10-16T08:08:13;17.57;;;15.97;;
18999;SDS011;9633;50.980;13.850;2022-10-16T08:09:48;17.40;;;15.90;;
18999;SDS011;9633;50.980;13.850;2022-10-16T08:11:22;17.00;;;15.47;;
18999;SDS011;9633;50.980;13.850;2022-10-16T08:12:56;18.00;;;16.43;;
18999;SDS011;9633;50.980;13.850;2022-10-16T08:14:29;18.00;;;16.30;;
18999;SDS011;9633;50.980;13.850;2022-10-16T08:16:03;17.80;;;16.27;;
18999;SDS011;9633;50.980;13.850;2022-10-16T08:17:38;18.03;;;16.40;;
18999;SDS011;9633;50.980;13.850;2022-10-16T08:19:12;17.37;;;15.87;;
18999;SDS011;9633;50.980;13.850;2022-10-16T08:20:46;16.73;;;15.27;;
18999;SDS011;9633;50.980;13.850;2022-10-16T08:22:20;16.37;;;14.97;;
18999;SDS011;9633;50.980;13.850;2022-10-16T08:23:53;16.57;;;15.17;;
18999;SDS011;9633;50.980;13.850;2022-10-16T08:25:28;16.47;;;15.07;;
18999;SDS011;9633;50.980;13.850;2022-10-16T08:27:01;17.60;;;16.10;;
18999;SDS011;9633;50.980;13.850;2022-10-16T08:28:35;16.83;;;15.27;;
18999;SDS011;9633;50.980;13.850;2022-10-16T08:30:11;16.57;;;15.10;;
18999;SDS011;9633;50.980;13.850;2022-10-16T08:31:44;16.13;;;14.83;;
18999;SDS011;9633;50.980;13.850;2022-10-16T08:33:17;14.83;;;13.53;;
18999;SDS011;9633;50.980;13.850;2022-10-16T08:34:50;15.00;;;13.80;;
18999;SDS011;9633;50.980;13.850;2022-10-16T08:36:23;14.90;;;13.60;;
18999;SDS011;9633;50.980;13.850;2022-10-16T08:37:56;15.20;;;13.90;;
18999;SDS011;9633;50.980;13.850;2022-10-16T08:39:29;15.83;;;14.53;;
18999;SDS011;9633;50.980;13.850;2022-10-16T08:41:10;14.23;;;12.93;;
18999;SDS011;9633;50.980;13.850;2022-10-16T08:42:59;14.40;;;13.20;;
18999;SDS011;9633;50.980;13.850;2022-10-16T08:46:53;13.40;;;12.40;;
18999;SDS011;9633;50.980;13.850;2022-10-16T08:48:36;13.57;;;12.37;;
18999;SDS011;9633;50.980;13.850;2022-10-16T08:50:17;13.83;;;12.50;;
18999;SDS011;9633;50.980;13.850;2022-10-16T08:51:55;14.60;;;13.20;;
18999;SDS011;9633;50.980;13.850;2022-10-16T08:53:30;14.33;;;13.10;;
18999;SDS011;9633;50.980;13.850;2022-10-16T08:55:14;11.73;;;10.67;;
18999;SDS011;9633;50.980;13.850;2022-10-16T08:57:07;12.90;;;11.80;;
18999;SDS011;9633;50.980;13.850;2022-10-16T08:58:43;11.67;;;10.67;;
18999;SDS011;9633;50.980;13.850;2022-10-16T09:00:24;11.73;;;10.83;;
18999;SDS011;9633;50.980;13.850;2022-10-16T09:01:59;12.50;;;11.50;;
18999;SDS011;9633;50.980;13.850;2022-10-16T09:03:37;13.20;;;12.10;;
18999;SDS011;9633;50.980;13.850;2022-10-16T09:05:21;12.70;;;11.60;;
18999;SDS011;9633;50.980;13.850;2022-10-16T09:07:01;12.97;;;11.97;;
18999;SDS011;9633;50.980;13.850;2022-10-16T09:08:39;14.67;;;13.47;;
18999;SDS011;9633;50.980;13.850;2022-10-16T09:10:22;13.00;;;12.00;;
18999;SDS011;9633;50.980;13.850;2022-10-16T09:12:05;13.20;;;12.10;;
18999;SDS011;9633;50.980;13.850;2022-10-16T09:13:47;13.00;;;12.00;;
18999;SDS011;9633;50.980;13.850;2022-10-16T09:15:28;12.73;;;11.63;;